createdAt,value
2023-03-20T00:01:22.503Z,61.55
2023-03-20T00:03:50.063Z,58.30
2023-03-20T00:06:24.588Z,60.25
2023-03-20T00:08:53.311Z,65.35
2023-03-20T00:11:21.480Z,58.95
2023-03-20T00:13:48.866Z,62.13
2023-03-20T00:16:16.269Z,68.80
2023-03-20T00:18:43.815Z,68.60
2023-03-20T00:21:16.741Z,67.18
2023-03-20T00:23:44.221Z,64.63
2023-03-20T00:26:14.398Z,61.47
2023-03-20T00:28:46.297Z,66.38
2023-03-20T00:31:19.648Z,62.58
2023-03-20T00:33:47.124Z,64.82
2023-03-20T00:36:14.575Z,57.47
2023-03-20T00:38:42.052Z,62.15
2023-03-20T00:41:29.809Z,83.15
2023-03-20T00:44:17.057Z,85.45
2023-03-20T00:46:47.471Z,94.85
2023-03-20T00:49:15.009Z,101.40
2023-03-20T00:51:42.544Z,95.65
2023-03-20T00:54:17.183Z,105.90
2023-03-20T00:56:46.632Z,109.43
2023-03-20T00:59:17.200Z,100.82
2023-03-20T01:01:44.874Z,103.28
2023-03-20T01:04:13.650Z,91.80
2023-03-20T01:06:41.050Z,97.00
2023-03-20T01:09:08.603Z,92.60
2023-03-20T01:11:36.810Z,82.97
2023-03-20T01:14:04.400Z,78.63
2023-03-20T01:16:31.903Z,74.28
2023-03-20T01:19:00.576Z,67.95
2023-03-20T01:21:28.037Z,67.05
2023-03-20T01:23:55.549Z,78.35
2023-03-20T01:26:34.781Z,87.28
2023-03-20T01:29:02.329Z,86.65
2023-03-20T01:31:30.867Z,84.63
2023-03-20T01:33:58.459Z,97.10
2023-03-20T01:36:25.935Z,114.95
2023-03-20T01:38:57.898Z,110.50
2023-03-20T01:41:27.142Z,93.00
2023-03-20T01:43:54.674Z,111.03
2023-03-20T01:46:28.445Z,120.10
2023-03-20T01:49:01.008Z,125.90
2023-03-20T01:51:33.099Z,109.55
2023-03-20T01:54:28.682Z,91.40
2023-03-20T01:57:04.514Z,87.68
2023-03-20T01:59:36.928Z,81.40
2023-03-20T02:02:05.912Z,81.10
2023-03-20T02:04:42.099Z,70.70
2023-03-20T02:07:14.636Z,67.63
2023-03-20T02:10:05.337Z,71.25
2023-03-20T02:12:56.300Z,68.63
2023-03-20T02:15:36.834Z,87.25
2023-03-20T02:18:14.229Z,88.63
2023-03-20T02:20:51.316Z,82.72
2023-03-20T02:23:19.098Z,70.03
2023-03-20T02:26:07.491Z,67.72
2023-03-20T02:28:47.938Z,66.95
2023-03-20T02:31:15.793Z,68.57
2023-03-20T02:33:58.386Z,61.05
2023-03-20T02:36:28.840Z,62.78
2023-03-20T02:38:56.337Z,56.33
2023-03-20T02:41:27.630Z,59.85
2023-03-20T02:43:58.421Z,69.72
2023-03-20T02:46:35.467Z,56.28
2023-03-20T02:49:09.399Z,52.35
2023-03-20T02:51:41.040Z,50.30
2023-03-20T02:54:33.664Z,49.45
2023-03-20T02:57:06.065Z,53.47
2023-03-20T02:59:57.856Z,52.28
2023-03-20T03:02:34.669Z,46.17
2023-03-20T03:05:05.114Z,48.95
2023-03-20T03:07:34.258Z,53.50
2023-03-20T03:10:28.982Z,53.97
2023-03-20T03:12:58.541Z,57.90
2023-03-20T03:15:31.180Z,53.17
2023-03-20T03:18:00.197Z,58.92
2023-03-20T03:20:32.753Z,52.97
2023-03-20T03:23:00.643Z,56.08
2023-03-20T03:25:30.169Z,51.17
2023-03-20T03:28:17.859Z,47.63
2023-03-20T03:30:45.549Z,46.63
2023-03-20T03:33:13.213Z,44.15
2023-03-20T03:35:41.709Z,42.00
2023-03-20T03:38:31.093Z,44.92
2023-03-20T03:41:07.885Z,42.78
2023-03-20T03:43:38.820Z,45.67
2023-03-20T03:46:18.102Z,43.40
2023-03-20T03:48:48.573Z,40.92
2023-03-20T03:51:18.763Z,42.55
2023-03-20T03:54:02.873Z,44.22
2023-03-20T03:56:32.495Z,40.90
2023-03-20T03:59:05.791Z,41.40
2023-03-20T04:01:35.837Z,43.83
2023-03-20T04:04:05.564Z,43.92
2023-03-20T04:06:33.315Z,42.80
2023-03-20T04:09:01.000Z,39.03
2023-03-20T04:11:29.250Z,38.05
2023-03-20T04:13:56.851Z,44.15
2023-03-20T04:16:25.941Z,41.70
2023-03-20T04:18:56.165Z,42.92
2023-03-20T04:21:23.721Z,40.33
2023-03-20T04:23:52.786Z,38.85
2023-03-20T04:26:23.548Z,41.15
2023-03-20T04:28:51.667Z,44.22
2023-03-20T04:31:54.332Z,39.15
2023-03-20T04:34:39.712Z,42.20
2023-03-20T04:37:22.790Z,46.60
2023-03-20T04:39:59.362Z,42.00
2023-03-20T04:42:27.116Z,42.15
2023-03-20T04:45:00.772Z,39.78
2023-03-20T04:47:30.076Z,43.08
2023-03-20T04:49:57.957Z,43.75
2023-03-20T04:52:25.406Z,38.55
2023-03-20T04:54:52.973Z,40.72
2023-03-20T04:57:20.351Z,42.45
2023-03-20T04:59:48.082Z,38.67
2023-03-20T05:02:17.904Z,42.15
2023-03-20T05:04:45.544Z,37.35
2023-03-20T05:07:13.149Z,39.38
2023-03-20T05:10:10.549Z,42.05
2023-03-20T05:12:47.635Z,42.45
2023-03-20T05:15:33.890Z,38.72
2023-03-20T05:18:22.237Z,35.88
2023-03-20T05:21:05.464Z,42.50
2023-03-20T05:23:56.099Z,47.83
2023-03-20T05:26:46.856Z,49.83
2023-03-20T05:29:34.563Z,53.00
2023-03-20T05:32:36.925Z,42.53
2023-03-20T05:35:37.973Z,58.95
2023-03-20T05:38:26.826Z,69.93
2023-03-20T05:41:29.731Z,73.80
2023-03-20T05:44:14.975Z,54.33
2023-03-20T05:47:14.853Z,60.90
2023-03-20T05:49:57.741Z,41.20
2023-03-20T05:53:00.988Z,42.42
2023-03-20T05:55:48.757Z,43.30
2023-03-20T05:58:36.795Z,45.88
2023-03-20T06:01:21.424Z,41.88
2023-03-20T06:04:08.571Z,44.78
2023-03-20T06:06:59.356Z,88.53
2023-03-20T06:09:27.798Z,50.30
2023-03-20T06:11:56.298Z,45.10
2023-03-20T06:14:23.809Z,45.45
2023-03-20T06:16:58.075Z,49.08
2023-03-20T06:19:26.691Z,47.15
2023-03-20T06:21:54.210Z,43.20
2023-03-20T06:24:22.572Z,41.38
2023-03-20T06:26:50.629Z,34.55
2023-03-20T06:29:19.036Z,43.28
2023-03-20T06:31:48.430Z,41.72
2023-03-20T06:34:24.427Z,42.30
2023-03-20T06:36:52.001Z,38.28
2023-03-20T06:39:22.288Z,44.60
2023-03-20T06:41:49.944Z,29.77
2023-03-20T06:44:18.521Z,30.00
2023-03-20T06:47:18.224Z,30.45
2023-03-20T06:49:46.162Z,32.08
2023-03-20T06:52:17.964Z,31.75
2023-03-20T06:54:52.181Z,29.30
2023-03-20T06:57:20.166Z,26.83
2023-03-20T06:59:47.859Z,27.90
2023-03-20T07:02:16.378Z,27.27
2023-03-20T07:04:44.141Z,32.95
2023-03-20T07:07:11.744Z,25.83
2023-03-20T07:09:39.786Z,25.80
2023-03-20T07:12:11.045Z,25.00
2023-03-20T07:14:38.819Z,21.83
2023-03-20T07:17:09.227Z,23.42
2023-03-20T07:19:38.289Z,22.83
2023-03-20T07:22:11.581Z,21.55
2023-03-20T07:24:42.454Z,22.42
2023-03-20T07:27:12.499Z,21.23
2023-03-20T07:29:40.056Z,22.35
2023-03-20T07:32:15.103Z,19.33
2023-03-20T07:34:50.236Z,21.85
2023-03-20T07:37:19.802Z,21.83
2023-03-20T07:39:58.037Z,23.27
2023-03-20T07:42:38.954Z,23.65
2023-03-20T07:45:11.920Z,23.40
2023-03-20T07:47:39.401Z,21.63
2023-03-20T07:50:08.321Z,21.83
2023-03-20T07:52:36.342Z,24.60
2023-03-20T07:55:03.771Z,23.65
2023-03-20T07:57:31.341Z,22.23
2023-03-20T07:59:58.722Z,22.38
2023-03-20T08:02:26.543Z,21.90
2023-03-20T08:04:53.955Z,22.73
2023-03-20T08:07:21.477Z,24.38
2023-03-20T08:09:48.944Z,22.65
2023-03-20T08:12:17.179Z,24.98
2023-03-20T08:14:45.018Z,22.20
2023-03-20T08:17:15.211Z,24.65
2023-03-20T08:19:44.038Z,22.60
2023-03-20T08:22:11.567Z,27.90
2023-03-20T08:24:39.004Z,25.33
2023-03-20T08:27:06.422Z,26.58
2023-03-20T08:29:34.081Z,23.33
2023-03-20T08:32:01.552Z,26.02
2023-03-20T08:34:28.975Z,24.95
2023-03-20T08:36:56.384Z,25.73
2023-03-20T08:39:23.833Z,29.08
2023-03-20T08:41:51.371Z,29.40
2023-03-20T08:44:18.873Z,29.83
2023-03-20T08:46:47.481Z,25.90
2023-03-20T08:49:15.028Z,26.90
2023-03-20T08:51:43.126Z,25.45
2023-03-20T08:54:10.740Z,20.67
2023-03-20T08:56:38.137Z,24.92
2023-03-20T08:59:05.600Z,29.08
2023-03-20T09:01:48.281Z,26.92
2023-03-20T09:04:17.009Z,24.80
2023-03-20T09:06:44.544Z,25.08
2023-03-20T09:09:15.830Z,26.05
2023-03-20T09:11:43.418Z,25.63
2023-03-20T09:14:11.289Z,25.73
2023-03-20T09:16:39.395Z,30.55
2023-03-20T09:19:07.061Z,25.17
2023-03-20T09:21:34.711Z,25.98
2023-03-20T09:24:02.149Z,26.88
2023-03-20T09:26:29.619Z,28.98
2023-03-20T09:28:57.100Z,24.15
2023-03-20T09:31:24.615Z,27.35
2023-03-20T09:33:52.080Z,22.45
2023-03-20T09:36:19.531Z,22.20
2023-03-20T09:38:47.014Z,22.77
2023-03-20T09:41:20.030Z,24.92
2023-03-20T09:44:19.897Z,21.63
2023-03-20T09:46:53.252Z,18.63
2023-03-20T09:49:38.200Z,20.08
2023-03-20T09:52:12.113Z,20.38
2023-03-20T09:54:54.054Z,17.87
2023-03-20T09:57:25.540Z,16.80
2023-03-20T09:59:56.652Z,16.80
2023-03-20T10:02:36.210Z,11.63
2023-03-20T10:05:04.652Z,15.90
2023-03-20T10:07:32.086Z,14.88
2023-03-20T10:09:59.525Z,14.07
2023-03-20T10:12:27.165Z,12.75
2023-03-20T10:15:09.928Z,15.75
2023-03-20T10:17:43.450Z,11.20
2023-03-20T10:20:29.747Z,14.73
2023-03-20T10:22:59.784Z,14.52
2023-03-20T10:25:32.227Z,14.35
2023-03-20T10:28:00.970Z,14.82
2023-03-20T10:30:47.167Z,16.30
2023-03-20T10:33:26.803Z,14.05
2023-03-20T10:35:57.127Z,14.52
2023-03-20T10:38:25.974Z,13.60
2023-03-20T10:40:53.840Z,13.85
2023-03-20T10:43:42.992Z,19.40
2023-03-20T10:46:17.128Z,13.73
2023-03-20T10:48:44.570Z,14.70
2023-03-20T10:51:19.470Z,14.77
2023-03-20T10:56:17.265Z,11.90
2023-03-20T10:58:47.891Z,11.02
2023-03-20T11:01:16.265Z,12.38
2023-03-20T11:03:44.217Z,14.05
2023-03-20T11:06:12.149Z,11.50
2023-03-20T11:08:43.714Z,10.25
2023-03-20T11:11:11.311Z,9.82
2023-03-20T11:13:45.552Z,12.35
2023-03-20T11:16:22.302Z,12.35
2023-03-20T11:18:50.685Z,11.57
2023-03-20T11:21:20.314Z,14.00
2023-03-20T11:23:48.385Z,19.73
2023-03-20T11:26:42.191Z,13.68
2023-03-20T11:29:25.835Z,19.50
2023-03-20T11:31:53.391Z,14.00
2023-03-20T11:34:27.839Z,12.60
2023-03-20T11:37:10.054Z,12.02
2023-03-20T11:39:40.195Z,14.73
2023-03-20T11:42:22.935Z,13.20
2023-03-20T11:44:57.838Z,14.90
2023-03-20T11:49:57.726Z,12.30
2023-03-20T11:52:28.793Z,12.15
2023-03-20T11:54:58.078Z,12.70
2023-03-20T11:57:34.884Z,12.73
2023-03-20T12:00:06.868Z,11.88
2023-03-20T12:02:34.639Z,11.43
2023-03-20T12:05:02.409Z,13.60
2023-03-20T12:07:36.941Z,8.73
2023-03-20T12:10:06.816Z,9.93
2023-03-20T12:12:43.217Z,10.32
2023-03-20T12:15:13.514Z,10.40
2023-03-20T12:17:49.091Z,11.60
2023-03-20T12:20:16.543Z,11.02
2023-03-20T12:22:51.084Z,10.20
2023-03-20T12:25:29.840Z,12.65
2023-03-20T12:28:03.613Z,10.35
2023-03-20T12:30:45.723Z,10.52
2023-03-20T12:33:19.202Z,9.13
2023-03-20T12:35:48.618Z,10.90
2023-03-20T12:38:28.609Z,11.38
2023-03-20T12:40:59.357Z,13.10
2023-03-20T12:43:27.815Z,10.40
2023-03-20T12:46:01.040Z,10.00
2023-03-20T12:48:43.716Z,12.93
2023-03-20T12:51:17.376Z,10.15
2023-03-20T12:53:44.970Z,12.32
2023-03-20T12:56:12.339Z,12.48
2023-03-20T12:58:42.862Z,10.13
2023-03-20T13:01:10.717Z,12.98
2023-03-20T13:03:41.611Z,13.85
2023-03-20T13:06:15.610Z,11.77
2023-03-20T13:08:48.905Z,9.87
2023-03-20T13:11:25.585Z,13.95
2023-03-20T13:13:57.797Z,11.98
2023-03-20T13:16:45.669Z,14.05
2023-03-20T13:19:25.569Z,12.98
2023-03-20T13:21:57.366Z,12.80
2023-03-20T13:24:36.656Z,11.20
2023-03-20T13:27:22.705Z,10.90
2023-03-20T13:29:58.234Z,9.93
2023-03-20T13:32:34.742Z,12.15
2023-03-20T13:35:23.877Z,13.63
2023-03-20T13:38:02.095Z,13.80
2023-03-20T13:40:31.038Z,9.63
2023-03-20T13:43:22.347Z,9.93
2023-03-20T13:45:50.667Z,12.40
2023-03-20T13:48:36.232Z,8.13
2023-03-20T13:51:22.782Z,9.23
2023-03-20T13:53:56.439Z,11.82
2023-03-20T13:56:26.840Z,15.57
2023-03-20T13:59:02.991Z,16.10
2023-03-20T14:01:53.686Z,11.15
2023-03-20T14:04:22.972Z,13.40
2023-03-20T14:06:52.648Z,11.38
2023-03-20T14:09:36.468Z,9.77
2023-03-20T14:12:08.542Z,9.73
2023-03-20T14:14:42.093Z,8.32
2023-03-20T14:17:21.038Z,8.88
2023-03-20T14:19:49.792Z,8.50
2023-03-20T14:22:22.227Z,8.60
2023-03-20T14:24:55.690Z,11.07
2023-03-20T14:27:41.117Z,11.73
2023-03-20T14:30:37.877Z,10.15
2023-03-20T14:33:24.523Z,9.48
2023-03-20T14:35:53.189Z,7.90
2023-03-20T14:38:20.724Z,11.63
2023-03-20T14:40:50.968Z,8.95
2023-03-20T14:43:37.277Z,8.52
2023-03-20T14:46:07.681Z,8.52
2023-03-20T14:48:46.827Z,11.05
2023-03-20T14:51:21.222Z,11.60
2023-03-20T14:53:57.058Z,12.13
2023-03-20T14:56:34.044Z,11.35
2023-03-20T14:59:08.102Z,9.50
2023-03-20T15:01:44.670Z,11.93
2023-03-20T15:04:24.841Z,12.55
2023-03-20T15:06:58.554Z,10.38
2023-03-20T15:09:27.129Z,11.35
2023-03-20T15:11:54.853Z,10.57
2023-03-20T15:14:28.264Z,8.90
2023-03-20T15:17:00.379Z,9.82
2023-03-20T15:19:28.683Z,8.23
2023-03-20T15:21:56.712Z,11.93
2023-03-20T15:24:25.155Z,6.78
2023-03-20T15:26:58.191Z,8.95
2023-03-20T15:29:25.802Z,10.43
2023-03-20T15:32:12.345Z,11.07
2023-03-20T15:34:41.264Z,8.85
2023-03-20T15:37:13.727Z,11.10
2023-03-20T15:39:56.285Z,10.52
2023-03-20T15:42:25.746Z,8.98
2023-03-20T15:44:54.176Z,11.55
2023-03-20T15:47:23.538Z,10.75
2023-03-20T15:49:56.361Z,10.20
2023-03-20T15:52:38.936Z,12.93
2023-03-20T15:55:08.433Z,14.40
2023-03-20T15:57:37.511Z,9.05
2023-03-20T16:00:06.691Z,12.85
2023-03-20T16:02:34.482Z,15.23
2023-03-20T16:05:01.946Z,16.85
2023-03-20T16:07:31.797Z,17.45
2023-03-20T16:09:59.680Z,26.00
2023-03-20T16:12:27.525Z,27.55
2023-03-20T16:14:55.226Z,32.40
2023-03-20T16:17:23.371Z,29.58
2023-03-20T16:19:51.298Z,32.13
2023-03-20T16:22:24.834Z,23.17
2023-03-20T16:24:55.576Z,20.23
2023-03-20T16:27:49.163Z,21.00
2023-03-20T16:30:22.179Z,23.02
2023-03-20T16:32:51.884Z,26.00
2023-03-20T16:35:25.761Z,108.03
2023-03-20T16:37:55.188Z,81.68
2023-03-20T16:40:37.164Z,66.00
2023-03-20T16:43:12.924Z,51.65
2023-03-20T16:45:44.158Z,46.72
2023-03-20T16:48:11.801Z,58.60
2023-03-20T16:50:40.871Z,52.60
2023-03-20T16:53:12.058Z,51.53
2023-03-20T16:55:44.021Z,44.38
2023-03-20T16:58:12.491Z,31.27
2023-03-20T17:00:44.683Z,41.58
2023-03-20T17:03:26.928Z,52.50
2023-03-20T17:05:56.429Z,100.63
2023-03-20T17:08:28.982Z,41.72
2023-03-20T17:10:58.270Z,30.60
2023-03-20T17:13:25.746Z,34.75
2023-03-20T17:15:53.241Z,49.42
2023-03-20T17:18:20.685Z,38.17
2023-03-20T17:20:48.131Z,58.70
2023-03-20T17:23:18.434Z,51.85
2023-03-20T17:25:46.009Z,51.00
2023-03-20T17:28:23.908Z,47.67
2023-03-20T17:30:51.920Z,61.05
2023-03-20T17:33:21.181Z,52.28
2023-03-20T17:35:48.959Z,46.92
2023-03-20T17:38:17.753Z,47.70
2023-03-20T17:40:45.440Z,49.25
2023-03-20T17:43:14.078Z,45.08
2023-03-20T17:45:41.875Z,37.90
2023-03-20T17:48:17.240Z,34.53
2023-03-20T17:50:45.902Z,37.05
2023-03-20T17:53:17.708Z,36.25
2023-03-20T17:55:45.411Z,42.40
2023-03-20T17:58:15.020Z,38.47
2023-03-20T18:00:42.625Z,43.08
2023-03-20T18:03:10.213Z,42.95
2023-03-20T18:05:39.658Z,44.88
2023-03-20T18:08:09.766Z,45.35
2023-03-20T18:10:37.979Z,47.78
2023-03-20T18:13:05.690Z,41.50
2023-03-20T18:15:33.231Z,45.10
2023-03-20T18:18:00.815Z,45.20
2023-03-20T18:20:30.618Z,43.55
2023-03-20T18:22:58.127Z,38.38
2023-03-20T18:25:28.623Z,31.13
2023-03-20T18:27:56.853Z,32.47
2023-03-20T18:30:25.940Z,29.48
2023-03-20T18:32:53.428Z,31.40
2023-03-20T18:35:20.881Z,23.40
2023-03-20T18:37:48.323Z,26.20
2023-03-20T18:40:26.336Z,27.10
2023-03-20T18:42:54.368Z,29.35
2023-03-20T18:45:22.105Z,31.02
2023-03-20T18:47:50.157Z,29.80
2023-03-20T18:50:24.300Z,45.22
2023-03-20T18:52:52.778Z,37.33
2023-03-20T18:55:20.967Z,39.50
2023-03-20T18:57:48.447Z,38.72
2023-03-20T19:00:16.176Z,35.58
2023-03-20T19:02:43.611Z,33.35
2023-03-20T19:05:11.710Z,32.55
2023-03-20T19:07:39.218Z,21.40
2023-03-20T19:10:06.813Z,21.05
2023-03-20T19:12:34.265Z,21.83
2023-03-20T19:15:01.819Z,27.35
2023-03-20T19:17:29.314Z,26.42
2023-03-20T19:19:56.755Z,25.48
2023-03-20T19:22:29.589Z,24.20
2023-03-20T19:24:57.408Z,29.67
2023-03-20T19:27:24.835Z,25.65
2023-03-20T19:29:52.347Z,25.27
2023-03-20T19:32:19.747Z,22.40
2023-03-20T19:35:38.440Z,26.45
2023-03-20T19:37:34.762Z,28.73
2023-03-20T19:40:02.158Z,27.70
2023-03-20T19:42:52.922Z,27.33
2023-03-20T19:45:17.322Z,24.08
2023-03-20T19:47:44.812Z,23.25
2023-03-20T19:50:26.757Z,28.05
2023-03-20T19:52:54.848Z,23.70
2023-03-20T19:55:22.366Z,23.55
2023-03-20T19:57:50.115Z,25.85
2023-03-20T20:00:55.763Z,26.15
2023-03-20T20:03:06.277Z,24.10
2023-03-20T20:05:39.452Z,27.02
2023-03-20T20:08:33.404Z,28.70
2023-03-20T20:10:56.262Z,27.95
2023-03-20T20:13:25.704Z,24.48
2023-03-20T20:15:53.734Z,27.73
2023-03-20T20:18:22.124Z,29.75
2023-03-20T20:21:54.859Z,24.17
2023-03-20T20:23:38.462Z,28.08
2023-03-20T20:26:07.957Z,24.38
2023-03-20T20:28:35.434Z,25.48
2023-03-20T20:31:02.907Z,22.23
2023-03-20T20:33:34.140Z,20.55
2023-03-20T20:38:57.146Z,23.67
2023-03-20T20:41:25.999Z,59.40
2023-03-20T20:44:15.990Z,170.63
2023-03-20T20:46:40.860Z,88.45
2023-03-20T20:49:18.721Z,72.05
2023-03-20T20:51:47.197Z,69.93
2023-03-20T20:54:14.680Z,38.25
2023-03-20T20:56:42.129Z,32.60
2023-03-20T20:59:09.514Z,34.35
2023-03-20T21:01:37.081Z,34.38
2023-03-20T21:04:04.474Z,33.47
2023-03-20T21:07:03.429Z,32.63
2023-03-20T21:09:19.525Z,31.35
2023-03-20T21:11:47.051Z,31.08
2023-03-20T21:14:14.892Z,31.38
2023-03-20T21:16:42.289Z,31.05
2023-03-20T21:19:09.781Z,38.38
2023-03-20T21:21:39.246Z,25.55
2023-03-20T21:24:30.531Z,33.08
2023-03-20T21:26:59.291Z,30.92
2023-03-20T21:29:27.257Z,53.83
2023-03-20T21:31:54.807Z,69.30
2023-03-20T21:34:22.251Z,40.28
2023-03-20T21:36:51.366Z,22.63
2023-03-20T21:39:19.115Z,25.45
2023-03-20T21:41:46.547Z,45.15
2023-03-20T21:44:18.171Z,26.90
2023-03-20T21:50:31.050Z,33.72
2023-03-20T21:53:16.970Z,17.17
2023-03-20T22:04:21.927Z,18.85
2023-03-20T22:09:52.426Z,20.45
2023-03-20T22:12:54.180Z,20.25
2023-03-20T22:15:33.787Z,21.55
2023-03-20T22:18:12.146Z,20.58
2023-03-20T22:32:11.107Z,20.08
2023-03-20T22:34:54.412Z,18.85
2023-03-20T22:37:46.347Z,20.63
2023-03-20T22:40:51.849Z,18.55
2023-03-20T22:45:38.161Z,22.13
2023-03-20T22:48:12.677Z,22.80
2023-03-20T22:50:40.820Z,20.70
2023-03-20T22:53:08.267Z,22.55
2023-03-20T22:55:35.836Z,17.58
2023-03-20T22:58:08.119Z,18.92
2023-03-20T23:00:36.819Z,20.52
2023-03-20T23:03:37.520Z,18.75
2023-03-20T23:05:53.700Z,21.10
2023-03-20T23:08:21.158Z,21.77
2023-03-20T23:10:50.127Z,21.65
2023-03-20T23:13:18.110Z,19.33
2023-03-20T23:15:46.757Z,21.83
2023-03-20T23:18:14.409Z,21.15
2023-03-20T23:20:42.125Z,22.88
2023-03-20T23:23:09.731Z,25.70
2023-03-20T23:25:39.589Z,22.67
2023-03-20T23:28:08.598Z,25.27
2023-03-20T23:31:07.567Z,24.55
2023-03-20T23:33:24.057Z,25.27
2023-03-20T23:36:01.134Z,26.40
2023-03-20T23:38:36.468Z,25.73
2023-03-20T23:41:03.854Z,22.42
2023-03-20T23:43:31.573Z,23.92
2023-03-20T23:45:59.078Z,23.70
2023-03-20T23:48:26.811Z,24.42
2023-03-20T23:50:54.191Z,25.10
2023-03-20T23:53:22.257Z,25.40
2023-03-20T23:55:56.340Z,22.35
2023-03-20T23:58:24.807Z,23.15
